sensor_id;sensor_type;location;lat;lon;timestamp;temperature;humidity
49224;DHT22;35050;51.316;5.994;2023-10-13T00:01:48;17.60;99.90
49224;DHT22;35050;51.316;5.994;2023-10-13T00:04:17;17.60;99.90
49224;DHT22;35050;51.316;5.994;2023-10-13T00:06:42;17.60;99.90
49224;DHT22;35050;51.316;5.994;2023-10-13T00:09:08;17.60;99.90
49224;DHT22;35050;51.316;5.994;2023-10-13T00:11:42;17.50;99.90
49224;DHT22;35050;51.316;5.994;2023-10-13T00:14:11;17.60;99.90
49224;DHT22;35050;51.316;5.994;2023-10-13T00:16:39;17.60;99.90
49224;DHT22;35050;51.316;5.994;2023-10-13T00:19:06;17.60;99.90
49224;DHT22;35050;51.316;5.994;2023-10-13T00:21:31;17.60;99.90
49224;DHT22;35050;51.316;5.994;2023-10-13T00:23:58;17.60;99.90
49224;DHT22;35050;51.316;5.994;2023-10-13T00:26:28;17.70;99.90
49224;DHT22;35050;51.316;5.994;2023-10-13T00:29:01;17.60;99.90
49224;DHT22;35050;51.316;5.994;2023-10-13T00:31:47;17.60;99.90
49224;DHT22;35050;51.316;5.994;2023-10-13T00:34:14;17.60;99.90
49224;DHT22;35050;51.316;5.994;2023-10-13T00:36:52;17.60;99.90
49224;DHT22;35050;51.316;5.994;2023-10-13T00:39:42;17.60;99.90
49224;DHT22;35050;51.316;5.994;2023-10-13T00:42:12;17.60;99.90
49224;DHT22;35050;51.316;5.994;2023-10-13T00:44:45;17.60;99.90
49224;DHT22;35050;51.316;5.994;2023-10-13T00:47:18;17.60;99.90
49224;DHT22;35050;51.316;5.994;2023-10-13T00:49:59;17.70;99.90
49224;DHT22;35050;51.316;5.994;2023-10-13T00:52:25;17.70;99.90
49224;DHT22;35050;51.316;5.994;2023-10-13T00:54:51;17.70;99.90
49224;DHT22;35050;51.316;5.994;2023-10-13T00:57:19;17.70;99.90
49224;DHT22;35050;51.316;5.994;2023-10-13T00:59:57;17.70;99.90
49224;DHT22;35050;51.316;5.994;2023-10-13T01:02:25;17.70;99.90
49224;DHT22;35050;51.316;5.994;2023-10-13T01:05:07;17.70;99.90
49224;DHT22;35050;51.316;5.994;2023-10-13T01:07:36;17.70;99.90
49224;DHT22;35050;51.316;5.994;2023-10-13T01:10:03;17.80;99.90
49224;DHT22;35050;51.316;5.994;2023-10-13T01:12:30;17.70;99.90
49224;DHT22;35050;51.316;5.994;2023-10-13T01:14:57;17.70;99.90
49224;DHT22;35050;51.316;5.994;2023-10-13T01:17:22;17.80;99.90
49224;DHT22;35050;51.316;5.994;2023-10-13T01:19:49;17.70;99.90
49224;DHT22;35050;51.316;5.994;2023-10-13T01:22:14;17.70;99.90
49224;DHT22;35050;51.316;5.994;2023-10-13T01:24:40;17.70;99.90
49224;DHT22;35050;51.316;5.994;2023-10-13T01:27:07;17.70;99.90
49224;DHT22;35050;51.316;5.994;2023-10-13T01:29:53;17.70;99.90
49224;DHT22;35050;51.316;5.994;2023-10-13T01:32:30;17.70;99.90
49224;DHT22;35050;51.316;5.994;2023-10-13T01:34:56;17.70;99.90
49224;DHT22;35050;51.316;5.994;2023-10-13T01:37:23;17.70;99.90
49224;DHT22;35050;51.316;5.994;2023-10-13T01:39:49;17.70;99.90
49224;DHT22;35050;51.316;5.994;2023-10-13T01:42:16;17.70;99.90
49224;DHT22;35050;51.316;5.994;2023-10-13T01:44:50;17.70;99.90
49224;DHT22;35050;51.316;5.994;2023-10-13T01:47:15;17.70;99.90
49224;DHT22;35050;51.316;5.994;2023-10-13T01:49:42;17.70;99.90
49224;DHT22;35050;51.316;5.994;2023-10-13T01:52:09;17.70;99.90
49224;DHT22;35050;51.316;5.994;2023-10-13T01:54:47;17.70;99.90
49224;DHT22;35050;51.316;5.994;2023-10-13T01:57:14;17.70;99.90
49224;DHT22;35050;51.316;5.994;2023-10-13T01:59:44;17.80;99.90
49224;DHT22;35050;51.316;5.994;2023-10-13T02:02:10;17.70;99.90
49224;DHT22;35050;51.316;5.994;2023-10-13T02:04:40;17.80;99.90
49224;DHT22;35050;51.316;5.994;2023-10-13T02:07:17;17.70;99.90
49224;DHT22;35050;51.316;5.994;2023-10-13T02:09:42;17.70;99.90
49224;DHT22;35050;51.316;5.994;2023-10-13T02:12:09;17.70;99.90
49224;DHT22;35050;51.316;5.994;2023-10-13T02:14:38;17.70;99.90
49224;DHT22;35050;51.316;5.994;2023-10-13T02:17:04;17.70;99.90
49224;DHT22;35050;51.316;5.994;2023-10-13T02:19:42;17.70;99.90
49224;DHT22;35050;51.316;5.994;2023-10-13T02:22:12;17.70;99.90
49224;DHT22;35050;51.316;5.994;2023-10-13T02:24:49;17.70;99.90
49224;DHT22;35050;51.316;5.994;2023-10-13T02:27:17;17.70;99.90
49224;DHT22;35050;51.316;5.994;2023-10-13T02:29:43;17.70;99.90
49224;DHT22;35050;51.316;5.994;2023-10-13T02:32:11;17.70;99.90
49224;DHT22;35050;51.316;5.994;2023-10-13T02:34:46;17.70;99.90
49224;DHT22;35050;51.316;5.994;2023-10-13T02:37:12;17.70;99.90
49224;DHT22;35050;51.316;5.994;2023-10-13T02:39:39;17.70;99.90
49224;DHT22;35050;51.316;5.994;2023-10-13T02:42:07;17.80;99.90
49224;DHT22;35050;51.316;5.994;2023-10-13T02:44:34;17.80;99.90
49224;DHT22;35050;51.316;5.994;2023-10-13T02:47:02;17.70;99.90
49224;DHT22;35050;51.316;5.994;2023-10-13T02:49:31;17.80;99.90
49224;DHT22;35050;51.316;5.994;2023-10-13T02:52:00;17.80;99.90
49224;DHT22;35050;51.316;5.994;2023-10-13T02:54:33;17.80;99.90
49224;DHT22;35050;51.316;5.994;2023-10-13T02:57:05;17.80;99.90
49224;DHT22;35050;51.316;5.994;2023-10-13T02:59:32;17.80;99.90
49224;DHT22;35050;51.316;5.994;2023-10-13T03:02:12;17.80;99.90
49224;DHT22;35050;51.316;5.994;2023-10-13T03:04:58;17.80;99.90
49224;DHT22;35050;51.316;5.994;2023-10-13T03:07:35;17.90;99.90
49224;DHT22;35050;51.316;5.994;2023-10-13T03:10:02;17.90;99.90
49224;DHT22;35050;51.316;5.994;2023-10-13T03:12:35;17.80;99.90
49224;DHT22;35050;51.316;5.994;2023-10-13T03:15:02;17.80;99.90
49224;DHT22;35050;51.316;5.994;2023-10-13T03:17:48;17.80;99.90
49224;DHT22;35050;51.316;5.994;2023-10-13T03:20:18;17.80;99.90
49224;DHT22;35050;51.316;5.994;2023-10-13T03:22:48;17.90;99.90
49224;DHT22;35050;51.316;5.994;2023-10-13T03:25:18;17.90;99.90
49224;DHT22;35050;51.316;5.994;2023-10-13T03:27:55;17.90;99.90
49224;DHT22;35050;51.316;5.994;2023-10-13T03:30:20;17.90;99.90
49224;DHT22;35050;51.316;5.994;2023-10-13T03:32:47;17.90;99.90
49224;DHT22;35050;51.316;5.994;2023-10-13T03:35:20;17.90;99.90
49224;DHT22;35050;51.316;5.994;2023-10-13T03:38:03;17.90;99.90
49224;DHT22;35050;51.316;5.994;2023-10-13T03:40:29;17.90;99.90
49224;DHT22;35050;51.316;5.994;2023-10-13T03:42:56;17.80;99.90
49224;DHT22;35050;51.316;5.994;2023-10-13T03:48:17;17.80;99.90
49224;DHT22;35050;51.316;5.994;2023-10-13T03:51:00;17.90;99.90
49224;DHT22;35050;51.316;5.994;2023-10-13T03:53:39;17.90;99.90
49224;DHT22;35050;51.316;5.994;2023-10-13T03:56:26;17.90;99.90
49224;DHT22;35050;51.316;5.994;2023-10-13T03:58:56;17.90;99.90
49224;DHT22;35050;51.316;5.994;2023-10-13T04:01:25;17.90;99.90
49224;DHT22;35050;51.316;5.994;2023-10-13T04:04:12;17.90;99.90
49224;DHT22;35050;51.316;5.994;2023-10-13T04:06:41;17.90;99.90
49224;DHT22;35050;51.316;5.994;2023-10-13T04:09:21;17.90;99.90
49224;DHT22;35050;51.316;5.994;2023-10-13T04:12:00;18.00;99.90
49224;DHT22;35050;51.316;5.994;2023-10-13T04:17:16;17.90;99.90
49224;DHT22;35050;51.316;5.994;2023-10-13T04:19:49;17.90;99.90
49224;DHT22;35050;51.316;5.994;2023-10-13T04:22:40;17.90;99.90
49224;DHT22;35050;51.316;5.994;2023-10-13T04:25:19;17.90;99.90
49224;DHT22;35050;51.316;5.994;2023-10-13T04:28:05;17.90;99.90
49224;DHT22;35050;51.316;5.994;2023-10-13T04:30:48;17.90;99.90
49224;DHT22;35050;51.316;5.994;2023-10-13T04:33:22;17.90;99.90
49224;DHT22;35050;51.316;5.994;2023-10-13T04:36:10;17.90;99.90
49224;DHT22;35050;51.316;5.994;2023-10-13T04:38:46;17.90;99.90
49224;DHT22;35050;51.316;5.994;2023-10-13T04:41:25;18.00;99.90
49224;DHT22;35050;51.316;5.994;2023-10-13T04:43:58;18.00;99.90
49224;DHT22;35050;51.316;5.994;2023-10-13T04:46:30;18.00;99.90
49224;DHT22;35050;51.316;5.994;2023-10-13T04:49:22;17.90;99.90
49224;DHT22;35050;51.316;5.994;2023-10-13T04:51:59;18.00;99.90
49224;DHT22;35050;51.316;5.994;2023-10-13T04:54:27;18.00;99.90
49224;DHT22;35050;51.316;5.994;2023-10-13T04:57:19;18.00;99.90
49224;DHT22;35050;51.316;5.994;2023-10-13T04:59:47;17.90;99.90
49224;DHT22;35050;51.316;5.994;2023-10-13T05:02:44;17.90;99.90
49224;DHT22;35050;51.316;5.994;2023-10-13T05:05:25;18.00;99.90
49224;DHT22;35050;51.316;5.994;2023-10-13T05:07:52;18.00;99.90
49224;DHT22;35050;51.316;5.994;2023-10-13T05:10:36;17.90;99.90
49224;DHT22;35050;51.316;5.994;2023-10-13T05:13:20;18.00;99.90
49224;DHT22;35050;51.316;5.994;2023-10-13T05:16:05;18.00;99.90
49224;DHT22;35050;51.316;5.994;2023-10-13T05:18:49;18.00;99.90
49224;DHT22;35050;51.316;5.994;2023-10-13T05:21:33;18.00;99.90
49224;DHT22;35050;51.316;5.994;2023-10-13T05:24:17;18.00;99.90
49224;DHT22;35050;51.316;5.994;2023-10-13T05:27:01;18.00;99.90
49224;DHT22;35050;51.316;5.994;2023-10-13T05:29:47;18.00;99.90
49224;DHT22;35050;51.316;5.994;2023-10-13T05:32:32;18.00;99.90
49224;DHT22;35050;51.316;5.994;2023-10-13T05:35:17;18.00;99.90
49224;DHT22;35050;51.316;5.994;2023-10-13T05:38:01;18.00;99.90
49224;DHT22;35050;51.316;5.994;2023-10-13T05:41:12;18.00;99.90
49224;DHT22;35050;51.316;5.994;2023-10-13T05:43:56;18.00;99.90
49224;DHT22;35050;51.316;5.994;2023-10-13T05:46:40;18.00;99.90
49224;DHT22;35050;51.316;5.994;2023-10-13T05:49:26;18.00;99.90
49224;DHT22;35050;51.316;5.994;2023-10-13T05:52:10;18.00;99.90
49224;DHT22;35050;51.316;5.994;2023-10-13T05:54:45;18.00;99.90
49224;DHT22;35050;51.316;5.994;2023-10-13T05:57:30;18.00;99.90
49224;DHT22;35050;51.316;5.994;2023-10-13T06:00:11;18.00;99.90
49224;DHT22;35050;51.316;5.994;2023-10-13T06:02:55;18.00;99.90
49224;DHT22;35050;51.316;5.994;2023-10-13T06:05:39;18.00;99.90
49224;DHT22;35050;51.316;5.994;2023-10-13T06:08:23;18.00;99.90
49224;DHT22;35050;51.316;5.994;2023-10-13T06:11:07;17.90;99.90
49224;DHT22;35050;51.316;5.994;2023-10-13T06:13:51;18.00;99.90
49224;DHT22;35050;51.316;5.994;2023-10-13T06:16:35;18.00;99.90
49224;DHT22;35050;51.316;5.994;2023-10-13T06:19:19;17.90;99.90
49224;DHT22;35050;51.316;5.994;2023-10-13T06:22:03;18.00;99.90
49224;DHT22;35050;51.316;5.994;2023-10-13T06:24:48;17.90;99.90
49224;DHT22;35050;51.316;5.994;2023-10-13T06:27:32;18.00;99.90
49224;DHT22;35050;51.316;5.994;2023-10-13T06:30:16;18.00;99.90
49224;DHT22;35050;51.316;5.994;2023-10-13T06:32:43;18.00;99.90
49224;DHT22;35050;51.316;5.994;2023-10-13T06:35:08;18.00;99.90
49224;DHT22;35050;51.316;5.994;2023-10-13T06:37:34;18.10;99.90
49224;DHT22;35050;51.316;5.994;2023-10-13T06:40:10;18.10;99.90
49224;DHT22;35050;51.316;5.994;2023-10-13T06:42:54;18.10;99.90
49224;DHT22;35050;51.316;5.994;2023-10-13T06:45:38;18.10;99.90
49224;DHT22;35050;51.316;5.994;2023-10-13T06:48:05;18.20;99.90
49224;DHT22;35050;51.316;5.994;2023-10-13T06:50:31;18.30;99.90
49224;DHT22;35050;51.316;5.994;2023-10-13T06:53:04;18.30;99.90
49224;DHT22;35050;51.316;5.994;2023-10-13T06:55:30;18.30;99.90
49224;DHT22;35050;51.316;5.994;2023-10-13T06:58:01;18.30;99.90
49224;DHT22;35050;51.316;5.994;2023-10-13T07:00:27;18.40;99.90
49224;DHT22;35050;51.316;5.994;2023-10-13T07:03:00;18.30;99.90
49224;DHT22;35050;51.316;5.994;2023-10-13T07:05:36;18.30;99.90
49224;DHT22;35050;51.316;5.994;2023-10-13T07:08:07;18.30;99.90
49224;DHT22;35050;51.316;5.994;2023-10-13T07:10:33;18.30;99.90
49224;DHT22;35050;51.316;5.994;2023-10-13T07:13:14;18.30;99.90
49224;DHT22;35050;51.316;5.994;2023-10-13T07:15:42;18.40;99.90
49224;DHT22;35050;51.316;5.994;2023-10-13T07:18:15;18.30;99.90
49224;DHT22;35050;51.316;5.994;2023-10-13T07:20:42;18.40;99.90
49224;DHT22;35050;51.316;5.994;2023-10-13T07:23:14;18.40;99.90
49224;DHT22;35050;51.316;5.994;2023-10-13T07:25:54;18.40;99.90
49224;DHT22;35050;51.316;5.994;2023-10-13T07:28:28;18.40;99.90
49224;DHT22;35050;51.316;5.994;2023-10-13T07:30:56;18.50;99.90
49224;DHT22;35050;51.316;5.994;2023-10-13T07:33:25;18.40;99.90
49224;DHT22;35050;51.316;5.994;2023-10-13T07:36:09;18.50;99.90
49224;DHT22;35050;51.316;5.994;2023-10-13T07:38:45;18.50;99.90
49224;DHT22;35050;51.316;5.994;2023-10-13T07:41:15;18.50;99.90
49224;DHT22;35050;51.316;5.994;2023-10-13T07:43:41;18.50;99.90
49224;DHT22;35050;51.316;5.994;2023-10-13T07:46:08;18.60;99.90
49224;DHT22;35050;51.316;5.994;2023-10-13T07:48:37;18.60;99.90
49224;DHT22;35050;51.316;5.994;2023-10-13T07:51:08;18.60;99.90
49224;DHT22;35050;51.316;5.994;2023-10-13T07:53:46;18.70;99.90
49224;DHT22;35050;51.316;5.994;2023-10-13T07:56:14;18.90;99.90
49224;DHT22;35050;51.316;5.994;2023-10-13T07:58:44;18.90;99.90
49224;DHT22;35050;51.316;5.994;2023-10-13T08:01:25;18.90;99.90
49224;DHT22;35050;51.316;5.994;2023-10-13T08:03:52;19.00;99.90
49224;DHT22;35050;51.316;5.994;2023-10-13T08:06:36;19.00;99.90
49224;DHT22;35050;51.316;5.994;2023-10-13T08:09:02;19.00;99.90
49224;DHT22;35050;51.316;5.994;2023-10-13T08:11:35;19.00;99.90
49224;DHT22;35050;51.316;5.994;2023-10-13T08:14:03;19.10;99.90
49224;DHT22;35050;51.316;5.994;2023-10-13T08:16:41;19.10;99.90
49224;DHT22;35050;51.316;5.994;2023-10-13T08:19:17;19.30;99.90
49224;DHT22;35050;51.316;5.994;2023-10-13T08:21:44;19.30;99.90
49224;DHT22;35050;51.316;5.994;2023-10-13T08:24:36;19.40;99.90
49224;DHT22;35050;51.316;5.994;2023-10-13T08:27:06;19.30;99.90
49224;DHT22;35050;51.316;5.994;2023-10-13T08:29:59;19.30;99.90
49224;DHT22;35050;51.316;5.994;2023-10-13T08:32:44;19.30;99.90
49224;DHT22;35050;51.316;5.994;2023-10-13T08:35:29;19.40;99.90
49224;DHT22;35050;51.316;5.994;2023-10-13T08:37:55;19.30;99.90
49224;DHT22;35050;51.316;5.994;2023-10-13T08:40:23;19.40;99.90
49224;DHT22;35050;51.316;5.994;2023-10-13T08:43:12;19.60;99.90
49224;DHT22;35050;51.316;5.994;2023-10-13T08:45:42;19.50;99.90
49224;DHT22;35050;51.316;5.994;2023-10-13T08:48:11;19.50;99.90
49224;DHT22;35050;51.316;5.994;2023-10-13T08:53:14;19.60;99.90
49224;DHT22;35050;51.316;5.994;2023-10-13T08:56:03;19.60;99.90
49224;DHT22;35050;51.316;5.994;2023-10-13T08:58:32;19.70;99.90
49224;DHT22;35050;51.316;5.994;2023-10-13T09:01:18;19.70;99.90
49224;DHT22;35050;51.316;5.994;2023-10-13T09:04:07;19.70;99.90
49224;DHT22;35050;51.316;5.994;2023-10-13T09:07:02;19.70;99.90
49224;DHT22;35050;51.316;5.994;2023-10-13T09:12:25;19.80;99.90
49224;DHT22;35050;51.316;5.994;2023-10-13T09:14:58;19.90;99.90
49224;DHT22;35050;51.316;5.994;2023-10-13T09:17:29;20.10;99.90
49224;DHT22;35050;51.316;5.994;2023-10-13T09:20:07;20.20;99.90
49224;DHT22;35050;51.316;5.994;2023-10-13T09:22:52;20.10;99.90
49224;DHT22;35050;51.316;5.994;2023-10-13T09:25:39;20.20;99.90
49224;DHT22;35050;51.316;5.994;2023-10-13T09:28:27;20.20;99.90
49224;DHT22;35050;51.316;5.994;2023-10-13T09:30:55;20.10;99.90
49224;DHT22;35050;51.316;5.994;2023-10-13T09:36:02;20.00;99.90
49224;DHT22;35050;51.316;5.994;2023-10-13T09:38:35;20.00;99.90
49224;DHT22;35050;51.316;5.994;2023-10-13T09:41:05;20.00;99.90
49224;DHT22;35050;51.316;5.994;2023-10-13T09:43:52;20.00;99.90
49224;DHT22;35050;51.316;5.994;2023-10-13T09:46:21;20.00;99.90
49224;DHT22;35050;51.316;5.994;2023-10-13T09:48:57;19.90;99.90
49224;DHT22;35050;51.316;5.994;2023-10-13T09:51:40;20.00;99.90
49224;DHT22;35050;51.316;5.994;2023-10-13T09:54:31;20.10;99.90
49224;DHT22;35050;51.316;5.994;2023-10-13T09:57:15;20.20;99.90
49224;DHT22;35050;51.316;5.994;2023-10-13T10:00:02;20.40;99.90
49224;DHT22;35050;51.316;5.994;2023-10-13T10:02:34;20.40;99.90
49224;DHT22;35050;51.316;5.994;2023-10-13T10:05:00;20.50;99.90
49224;DHT22;35050;51.316;5.994;2023-10-13T10:07:55;20.50;99.90
49224;DHT22;35050;51.316;5.994;2023-10-13T10:10:22;20.60;99.90
49224;DHT22;35050;51.316;5.994;2023-10-13T10:12:59;20.70;99.90
49224;DHT22;35050;51.316;5.994;2023-10-13T10:15:29;21.00;99.90
49224;DHT22;35050;51.316;5.994;2023-10-13T10:18:01;21.20;99.90
49224;DHT22;35050;51.316;5.994;2023-10-13T10:20:35;21.20;99.90
49224;DHT22;35050;51.316;5.994;2023-10-13T10:23:10;21.30;99.90
49224;DHT22;35050;51.316;5.994;2023-10-13T10:25:49;21.20;99.90
49224;DHT22;35050;51.316;5.994;2023-10-13T10:28:17;21.10;99.90
49224;DHT22;35050;51.316;5.994;2023-10-13T10:30:44;21.20;99.90
49224;DHT22;35050;51.316;5.994;2023-10-13T10:33:11;21.30;99.90
49224;DHT22;35050;51.316;5.994;2023-10-13T10:35:44;21.60;99.90
49224;DHT22;35050;51.316;5.994;2023-10-13T10:38:17;21.50;99.90
49224;DHT22;35050;51.316;5.994;2023-10-13T10:40:55;21.60;99.90
49224;DHT22;35050;51.316;5.994;2023-10-13T10:45:53;22.00;99.90
49224;DHT22;35050;51.316;5.994;2023-10-13T10:48:25;22.10;99.90
49224;DHT22;35050;51.316;5.994;2023-10-13T10:50:57;22.20;99.90
49224;DHT22;35050;51.316;5.994;2023-10-13T10:53:25;22.20;99.90
49224;DHT22;35050;51.316;5.994;2023-10-13T10:56:06;22.60;99.90
49224;DHT22;35050;51.316;5.994;2023-10-13T10:58:58;22.90;99.90
49224;DHT22;35050;51.316;5.994;2023-10-13T11:01:27;23.40;99.90
49224;DHT22;35050;51.316;5.994;2023-10-13T11:03:59;23.40;99.90
49224;DHT22;35050;51.316;5.994;2023-10-13T11:06:37;23.10;99.90
49224;DHT22;35050;51.316;5.994;2023-10-13T11:09:08;23.00;99.90
49224;DHT22;35050;51.316;5.994;2023-10-13T11:11:53;22.90;99.90
49224;DHT22;35050;51.316;5.994;2023-10-13T11:14:26;22.90;99.90
49224;DHT22;35050;51.316;5.994;2023-10-13T11:16:53;22.80;99.90
49224;DHT22;35050;51.316;5.994;2023-10-13T11:19:37;22.70;99.90
49224;DHT22;35050;51.316;5.994;2023-10-13T11:22:20;22.70;99.90
49224;DHT22;35050;51.316;5.994;2023-10-13T11:25:04;22.60;99.90
49224;DHT22;35050;51.316;5.994;2023-10-13T11:27:37;22.70;99.90
49224;DHT22;35050;51.316;5.994;2023-10-13T11:30:23;22.80;99.90
49224;DHT22;35050;51.316;5.994;2023-10-13T11:33:05;22.90;99.90
49224;DHT22;35050;51.316;5.994;2023-10-13T11:35:35;23.10;99.90
49224;DHT22;35050;51.316;5.994;2023-10-13T11:38:29;23.40;99.90
49224;DHT22;35050;51.316;5.994;2023-10-13T11:41:02;23.50;99.90
49224;DHT22;35050;51.316;5.994;2023-10-13T11:43:34;23.80;99.90
49224;DHT22;35050;51.316;5.994;2023-10-13T11:46:13;23.90;99.90
49224;DHT22;35050;51.316;5.994;2023-10-13T11:48:42;23.70;99.90
49224;DHT22;35050;51.316;5.994;2023-10-13T11:51:12;23.50;99.90
49224;DHT22;35050;51.316;5.994;2023-10-13T11:53:51;23.50;99.90
49224;DHT22;35050;51.316;5.994;2023-10-13T11:56:21;23.30;99.90
49224;DHT22;35050;51.316;5.994;2023-10-13T11:58:47;23.30;99.90
49224;DHT22;35050;51.316;5.994;2023-10-13T12:01:14;23.20;99.90
49224;DHT22;35050;51.316;5.994;2023-10-13T12:03:43;23.30;99.90
49224;DHT22;35050;51.316;5.994;2023-10-13T12:06:29;23.20;99.90
49224;DHT22;35050;51.316;5.994;2023-10-13T12:09:02;23.20;99.90
49224;DHT22;35050;51.316;5.994;2023-10-13T12:11:59;23.20;99.90
49224;DHT22;35050;51.316;5.994;2023-10-13T12:14:26;23.20;99.90
49224;DHT22;35050;51.316;5.994;2023-10-13T12:16:57;23.20;99.90
49224;DHT22;35050;51.316;5.994;2023-10-13T12:19:29;23.10;99.90
49224;DHT22;35050;51.316;5.994;2023-10-13T12:21:57;23.10;99.90
49224;DHT22;35050;51.316;5.994;2023-10-13T12:24:28;22.90;99.90
49224;DHT22;35050;51.316;5.994;2023-10-13T12:27:03;22.80;99.90
49224;DHT22;35050;51.316;5.994;2023-10-13T12:29:47;22.80;99.90
49224;DHT22;35050;51.316;5.994;2023-10-13T12:32:14;22.80;99.90
49224;DHT22;35050;51.316;5.994;2023-10-13T12:34:41;22.90;99.90
49224;DHT22;35050;51.316;5.994;2023-10-13T12:37:28;22.90;99.90
49224;DHT22;35050;51.316;5.994;2023-10-13T12:42:48;23.20;99.90
49224;DHT22;35050;51.316;5.994;2023-10-13T12:45:32;23.40;99.90
49224;DHT22;35050;51.316;5.994;2023-10-13T12:48:16;23.50;99.90
49224;DHT22;35050;51.316;5.994;2023-10-13T12:51:03;23.70;99.90
49224;DHT22;35050;51.316;5.994;2023-10-13T12:53:47;23.80;99.90
49224;DHT22;35050;51.316;5.994;2023-10-13T12:56:14;23.80;99.90
49224;DHT22;35050;51.316;5.994;2023-10-13T12:58:41;23.80;99.90
49224;DHT22;35050;51.316;5.994;2023-10-13T13:01:07;23.90;99.90
49224;DHT22;35050;51.316;5.994;2023-10-13T13:03:33;24.10;99.90
49224;DHT22;35050;51.316;5.994;2023-10-13T13:06:01;24.70;99.90
49224;DHT22;35050;51.316;5.994;2023-10-13T13:08:33;25.00;99.90
49224;DHT22;35050;51.316;5.994;2023-10-13T13:11:01;25.40;99.90
49224;DHT22;35050;51.316;5.994;2023-10-13T13:13:27;25.10;99.90
49224;DHT22;35050;51.316;5.994;2023-10-13T13:15:52;24.80;99.90
49224;DHT22;35050;51.316;5.994;2023-10-13T13:18:18;24.30;99.90
49224;DHT22;35050;51.316;5.994;2023-10-13T13:20:45;24.20;99.90
49224;DHT22;35050;51.316;5.994;2023-10-13T13:23:21;24.00;99.90
49224;DHT22;35050;51.316;5.994;2023-10-13T13:25:53;23.90;99.90
49224;DHT22;35050;51.316;5.994;2023-10-13T13:28:18;23.80;99.90
49224;DHT22;35050;51.316;5.994;2023-10-13T13:30:44;23.50;99.90
49224;DHT22;35050;51.316;5.994;2023-10-13T13:33:16;23.60;99.90
49224;DHT22;35050;51.316;5.994;2023-10-13T13:35:42;23.40;99.90
49224;DHT22;35050;51.316;5.994;2023-10-13T13:38:14;23.40;99.90
49224;DHT22;35050;51.316;5.994;2023-10-13T13:40:48;23.40;99.90
49224;DHT22;35050;51.316;5.994;2023-10-13T13:43:22;23.30;99.90
49224;DHT22;35050;51.316;5.994;2023-10-13T13:46:07;23.20;99.90
49224;DHT22;35050;51.316;5.994;2023-10-13T13:48:36;23.10;99.90
49224;DHT22;35050;51.316;5.994;2023-10-13T13:51:06;23.00;99.90
49224;DHT22;35050;51.316;5.994;2023-10-13T13:53:40;22.80;99.90
49224;DHT22;35050;51.316;5.994;2023-10-13T13:56:13;22.70;99.90
49224;DHT22;35050;51.316;5.994;2023-10-13T13:58:47;22.70;99.90
49224;DHT22;35050;51.316;5.994;2023-10-13T14:01:13;22.70;99.90
49224;DHT22;35050;51.316;5.994;2023-10-13T14:03:41;22.60;99.90
49224;DHT22;35050;51.316;5.994;2023-10-13T14:06:20;22.50;99.90
49224;DHT22;35050;51.316;5.994;2023-10-13T14:08:52;22.50;99.90
49224;DHT22;35050;51.316;5.994;2023-10-13T14:11:21;22.40;99.90
49224;DHT22;35050;51.316;5.994;2023-10-13T14:14:05;22.40;99.90
49224;DHT22;35050;51.316;5.994;2023-10-13T14:16:41;22.40;99.90
49224;DHT22;35050;51.316;5.994;2023-10-13T14:19:10;22.40;99.90
49224;DHT22;35050;51.316;5.994;2023-10-13T14:21:36;22.40;99.90
49224;DHT22;35050;51.316;5.994;2023-10-13T14:24:02;22.30;99.90
49224;DHT22;35050;51.316;5.994;2023-10-13T14:26:28;22.30;99.90
49224;DHT22;35050;51.316;5.994;2023-10-13T14:28:55;22.30;99.90
49224;DHT22;35050;51.316;5.994;2023-10-13T14:31:34;22.20;99.90
49224;DHT22;35050;51.316;5.994;2023-10-13T14:34:02;22.20;99.90
49224;DHT22;35050;51.316;5.994;2023-10-13T14:36:28;22.20;99.90
49224;DHT22;35050;51.316;5.994;2023-10-13T14:39:01;22.20;99.90
49224;DHT22;35050;51.316;5.994;2023-10-13T14:41:27;22.10;99.90
49224;DHT22;35050;51.316;5.994;2023-10-13T14:43:53;22.00;99.90
49224;DHT22;35050;51.316;5.994;2023-10-13T14:46:22;22.00;99.90
49224;DHT22;35050;51.316;5.994;2023-10-13T14:48:53;22.00;99.90
49224;DHT22;35050;51.316;5.994;2023-10-13T14:51:19;22.00;99.90
49224;DHT22;35050;51.316;5.994;2023-10-13T14:53:48;21.90;99.90
49224;DHT22;35050;51.316;5.994;2023-10-13T14:56:15;22.00;99.90
49224;DHT22;35050;51.316;5.994;2023-10-13T14:58:43;21.90;99.90
49224;DHT22;35050;51.316;5.994;2023-10-13T15:01:16;21.90;99.90
49224;DHT22;35050;51.316;5.994;2023-10-13T15:03:49;21.90;99.90
49224;DHT22;35050;51.316;5.994;2023-10-13T15:06:19;22.00;99.90
49224;DHT22;35050;51.316;5.994;2023-10-13T15:08:47;22.00;99.90
49224;DHT22;35050;51.316;5.994;2023-10-13T15:11:16;22.00;99.90
49224;DHT22;35050;51.316;5.994;2023-10-13T15:13:44;21.90;99.90
49224;DHT22;35050;51.316;5.994;2023-10-13T15:16:18;21.80;99.90
49224;DHT22;35050;51.316;5.994;2023-10-13T15:18:45;21.80;99.90
49224;DHT22;35050;51.316;5.994;2023-10-13T15:21:21;21.80;99.90
49224;DHT22;35050;51.316;5.994;2023-10-13T15:23:48;21.80;99.90
49224;DHT22;35050;51.316;5.994;2023-10-13T15:26:19;21.70;99.90
49224;DHT22;35050;51.316;5.994;2023-10-13T15:28:50;21.70;99.90
49224;DHT22;35050;51.316;5.994;2023-10-13T15:31:19;21.60;99.90
49224;DHT22;35050;51.316;5.994;2023-10-13T15:33:52;21.70;99.90
49224;DHT22;35050;51.316;5.994;2023-10-13T15:36:23;21.60;99.90
49224;DHT22;35050;51.316;5.994;2023-10-13T15:38:58;21.50;99.90
49224;DHT22;35050;51.316;5.994;2023-10-13T15:41:25;21.50;99.90
49224;DHT22;35050;51.316;5.994;2023-10-13T15:43:51;21.50;99.90
49224;DHT22;35050;51.316;5.994;2023-10-13T15:46:20;21.40;99.90
49224;DHT22;35050;51.316;5.994;2023-10-13T15:48:50;21.40;99.90
49224;DHT22;35050;51.316;5.994;2023-10-13T15:51:16;21.40;99.90
49224;DHT22;35050;51.316;5.994;2023-10-13T15:53:43;21.40;99.90
49224;DHT22;35050;51.316;5.994;2023-10-13T15:56:11;21.40;99.90
49224;DHT22;35050;51.316;5.994;2023-10-13T15:58:46;21.30;99.90
49224;DHT22;35050;51.316;5.994;2023-10-13T16:01:13;21.40;99.90
49224;DHT22;35050;51.316;5.994;2023-10-13T16:03:43;21.30;99.90
49224;DHT22;35050;51.316;5.994;2023-10-13T16:06:13;21.30;99.90
49224;DHT22;35050;51.316;5.994;2023-10-13T16:08:42;21.30;99.90
49224;DHT22;35050;51.316;5.994;2023-10-13T16:11:10;21.20;99.90
49224;DHT22;35050;51.316;5.994;2023-10-13T16:13:42;21.10;99.90
49224;DHT22;35050;51.316;5.994;2023-10-13T16:16:21;21.10;99.90
49224;DHT22;35050;51.316;5.994;2023-10-13T16:18:51;21.10;99.90
49224;DHT22;35050;51.316;5.994;2023-10-13T16:21:18;21.00;99.90
49224;DHT22;35050;51.316;5.994;2023-10-13T16:23:48;20.90;99.90
49224;DHT22;35050;51.316;5.994;2023-10-13T16:26:14;20.80;99.90
49224;DHT22;35050;51.316;5.994;2023-10-13T16:28:40;20.80;99.90
49224;DHT22;35050;51.316;5.994;2023-10-13T16:31:06;20.70;99.90